Time;durP1;ratioP1;P1;durP2;ratioP2;P2;SDS_P1;SDS_P2;PMS_P1;PMS_P2;Temp;Humidity;BMP_temperature;BMP_pressure;BME280_temperature;BME280_humidity;BME280_pressure;Samples;Min_cycle;Max_cycle;Signal;HPM_P1;HPM_P2
2023/03/21 00:01:02;;;;;;;83.85;58.55;;;13.50;99.90;;;;;;5032291;28;20350;-69
2023/03/21 00:04:06;;;;;;;;;;;13.60;99.90;;;;;;5033219;28;20060;-69
2023/03/21 00:07:11;;;;;;;76.88;55.63;;;;;;;;;;5032530;28;19909;-69
2023/03/21 00:10:15;;;;;;;86.18;57.75;;;15.10;99.90;;;;;;5032284;28;20508;-69
2023/03/21 00:13:20;;;;;;;78.57;57.00;;;;;;;;;;5032590;28;20062;-69
2023/03/21 00:16:25;;;;;;;76.85;57.00;;;13.70;99.90;;;;;;5032106;28;20044;-69
2023/03/21 00:19:29;;;;;;;78.88;56.70;;;;;;;;;;5032522;28;20052;-69
2023/03/21 00:22:34;;;;;;;84.22;58.42;;;13.70;99.90;;;;;;5032215;28;20048;-68
2023/03/21 00:25:39;;;;;;;82.32;58.75;;;;;;;;;;5032160;28;20064;-69
2023/03/21 00:28:43;;;;;;;82.10;58.58;;;13.70;99.90;;;;;;5032270;28;20052;-68
2023/03/21 00:31:48;;;;;;;81.78;58.58;;;;;;;;;;5031149;28;20516;-69
2023/03/21 00:34:52;;;;;;;80.35;59.00;;;14.00;99.90;;;;;;5031748;28;20049;-68
2023/03/21 00:37:56;;;;;;;86.40;60.72;;;;;;;;;;5031242;28;20039;-68
2023/03/21 00:41:02;;;;;;;83.35;60.38;;;14.40;99.90;;;;;;5031681;28;20084;-68
2023/03/21 00:44:07;;;;;;;84.93;61.35;;;;;;;;;;5031693;28;20520;-68
2023/03/21 00:47:12;;;;;;;87.03;62.67;;;13.50;99.90;;;;;;5031915;28;20040;-68
2023/03/21 00:50:16;;;;;;;88.32;63.88;;;12.60;99.90;;;;;;5030524;28;20057;-68
2023/03/21 00:53:21;;;;;;;84.72;62.55;;;;;;;;;;5031603;28;20397;-69
2023/03/21 00:56:25;;;;;;;93.95;65.18;;;14.80;99.90;;;;;;5030939;28;20039;-69
2023/03/21 00:59:29;;;;;;;84.40;63.42;;;13.50;99.90;;;;;;5031228;28;20040;-69
2023/03/21 01:02:34;;;;;;;87.70;63.15;;;13.50;99.90;;;;;;5031353;28;20041;-69
2023/03/21 01:09:19;;;;;;;85.50;66.00;;;13.40;99.90;;;;;;5036312;28;20044;-69
2023/03/21 01:12:23;;;;;;;97.20;70.10;;;13.30;99.90;;;;;;5031206;28;20397;-69
2023/03/21 01:15:27;;;;;;;89.82;65.43;;;14.00;99.90;;;;;;5031151;28;20577;-69
2023/03/21 01:18:32;;;;;;;98.32;67.75;;;13.50;99.90;;;;;;5030625;28;20052;-69
2023/03/21 01:21:36;;;;;;;91.00;68.65;;;;;;;;;;5030929;28;20049;-69
2023/03/21 01:24:41;;;;;;;94.07;69.95;;;;;;;;;;5030898;28;20044;-69
2023/03/21 01:27:45;;;;;;;96.82;70.85;;;;;;;;;;5030214;28;20052;-69
2023/03/21 01:30:50;;;;;;;93.57;68.88;;;13.20;99.90;;;;;;5030741;28;20519;-69
2023/03/21 01:33:55;;;;;;;98.25;69.82;;;;;;;;;;5030781;28;20045;-69
2023/03/21 01:36:59;;;;;;;92.70;64.50;;;13.10;99.90;;;;;;5030403;28;20064;-69
2023/03/21 01:40:04;;;;;;;96.13;68.78;;;13.20;99.90;;;;;;5030000;28;20041;-70
2023/03/21 01:43:35;;;;;;;88.00;66.10;;;13.30;99.90;;;;;;5030147;28;20044;-69
2023/03/21 01:46:41;;;;;;;92.22;66.13;;;;;;;;;;5030218;28;20061;-69
2023/03/21 01:49:54;;;;;;;82.13;62.13;;;13.40;99.90;;;;;;5030199;28;20056;-68
2023/03/21 01:53:02;;;;;;;89.40;64.20;;;13.40;99.90;;;;;;5041493;28;20048;-69
2023/03/21 01:56:23;;;;;;;81.15;59.95;;;13.20;99.90;;;;;;5029975;28;20064;-69
2023/03/21 01:59:37;;;;;;;73.25;57.15;;;;;;;;;;5030015;28;20390;-68
2023/03/21 02:02:54;;;;;;;71.35;56.40;;;15.20;99.90;;;;;;5030023;28;20061;-69
2023/03/21 02:06:15;;;;;;;81.75;56.50;;;13.50;99.90;;;;;;5029755;28;20416;-68
2023/03/21 02:09:27;;;;;;;78.00;55.47;;;13.40;99.90;;;;;;5029843;28;20117;-69
2023/03/21 02:12:31;;;;;;;73.53;54.53;;;13.10;99.90;;;;;;5030544;28;20109;-70
2023/03/21 02:15:39;;;;;;;84.30;56.40;;;13.60;99.90;;;;;;5041295;28;20044;-67
2023/03/21 02:19:14;;;;;;;73.50;54.60;;;16.00;99.90;;;;;;5029800;28;20147;-69
2023/03/21 02:22:50;;;;;;;75.53;54.80;;;13.10;99.90;;;;;;5029547;28;20172;-69
2023/03/21 02:26:00;;;;;;;76.00;57.55;;;13.00;99.90;;;;;;5029473;28;20048;-69
2023/03/21 02:29:38;;;;;;;73.75;55.75;;;13.80;99.90;;;;;;5029823;28;20056;-70
2023/03/21 02:32:43;;;;;;;79.03;53.72;;;;;;;;;;5029777;28;20045;-67
2023/03/21 02:36:43;;;;;;;69.10;52.65;;;13.00;99.90;;;;;;5029752;28;20052;-69
2023/03/21 02:40:35;;;;;;;76.18;54.42;;;12.90;99.90;;;;;;5029482;28;20040;-68
2023/03/21 02:43:59;;;;;;;75.00;54.95;;;10.10;99.90;;;;;;5028490;28;20520;-69
2023/03/21 02:47:17;;;;;;;78.68;57.10;;;13.10;99.90;;;;;;5030122;28;20402;-69
2023/03/21 02:50:36;;;;;;;86.97;61.17;;;12.90;99.90;;;;;;5029330;28;20049;-68
2023/03/21 02:53:44;;;;;;;86.95;62.35;;;14.70;99.90;;;;;;5029183;28;20045;-68
2023/03/21 02:56:50;;;;;;;90.63;63.70;;;13.00;99.90;;;;;;5029200;28;20057;-69
2023/03/21 02:59:55;;;;;;;85.78;61.95;;;;;;;;;;5032587;28;20039;-70
2023/03/21 03:03:04;;;;;;;86.13;61.42;;;12.80;99.90;;;;;;5032885;28;20064;-69
2023/03/21 03:06:18;;;;;;;82.15;62.00;;;10.70;99.90;;;;;;5032993;28;20512;-68
2023/03/21 03:09:44;;;;;;;80.70;61.03;;;13.10;99.90;;;;;;5032819;28;20405;-70
2023/03/21 03:12:57;;;;;;;90.15;62.28;;;13.40;99.90;;;;;;5033781;28;20500;-69
2023/03/21 03:16:29;;;;;;;84.43;62.08;;;13.20;99.90;;;;;;5055909;28;20052;-69
2023/03/21 03:19:36;;;;;;;88.95;61.47;;;;;;;;;;5032800;28;20045;-68
2023/03/21 03:22:55;;;;;;;85.35;62.45;;;12.40;99.90;;;;;;5032264;28;20052;-69
2023/03/21 03:26:25;;;;;;;87.07;61.28;;;12.90;99.90;;;;;;5033545;28;20053;-69
2023/03/21 03:29:35;;;;;;;79.47;57.42;;;13.00;99.90;;;;;;5032096;28;20044;-69
2023/03/21 03:32:54;;;;;;;76.13;56.55;;;12.90;99.90;;;;;;5032167;28;20040;-67
2023/03/21 03:35:59;;;;;;;82.28;55.15;;;12.90;99.90;;;;;;5032452;28;20092;-69
2023/03/21 03:39:07;;;;;;;74.80;50.38;;;14.40;99.90;;;;;;5032239;28;20040;-69
2023/03/21 03:42:20;;;;;;;65.32;47.78;;;12.90;99.90;;;;;;5031940;28;20100;-69
2023/03/21 03:45:46;;;;;;;60.47;43.65;;;12.90;99.90;;;;;;5031785;28;20413;-69
2023/03/21 03:48:55;;;;;;;59.38;42.10;;;13.50;99.90;;;;;;5032136;28;20068;-69
2023/03/21 03:51:59;;;;;;;56.55;40.13;;;;;;;;;;5032845;28;20056;-69
2023/03/21 03:55:17;;;;;;;57.35;42.22;;;13.20;99.90;;;;;;5032011;28;20045;-69
2023/03/21 03:58:26;;;;;;;55.60;40.72;;;15.50;99.90;;;;;;5032086;28;20071;-68
2023/03/21 04:01:32;;;;;;;58.28;41.90;;;12.90;99.90;;;;;;5032445;28;20049;-69
2023/03/21 04:04:37;;;;;;;59.40;43.75;;;13.10;99.90;;;;;;5032735;28;20064;-69
2023/03/21 04:07:41;;;;;;;62.35;48.10;;;;;;;;;;5032270;28;20056;-68
2023/03/21 04:10:46;;;;;;;60.10;42.65;;;;;;;;;;5019406;28;20036;-68
2023/03/21 04:13:50;;;;;;;58.08;44.38;;;;;;;;;;5032330;28;20048;-68
2023/03/21 04:16:59;;;;;;;60.55;44.10;;;;;;;;;;5031866;28;20072;-68
2023/03/21 04:20:05;;;;;;;64.82;49.00;;;12.60;99.90;;;;;;5031697;28;20056;-69
2023/03/21 04:23:10;;;;;;;73.85;55.15;;;13.40;99.90;;;;;;5032761;28;20064;-68
2023/03/21 04:26:15;;;;;;;71.90;56.55;;;12.70;99.90;;;;;;5031838;28;20061;-69
2023/03/21 04:29:28;;;;;;;75.35;57.05;;;13.10;99.90;;;;;;5042717;28;20037;-69
2023/03/21 04:33:00;;;;;;;79.82;59.15;;;12.90;99.90;;;;;;5032287;28;20048;-69
2023/03/21 04:36:08;;;;;;;82.32;62.08;;;13.20;99.90;;;;;;5031106;28;20040;-69
2023/03/21 04:39:13;;;;;;;84.80;64.82;;;12.90;99.90;;;;;;5030879;28;20040;-69
2023/03/21 04:42:19;;;;;;;86.25;64.75;;;12.80;99.90;;;;;;5030978;28;20125;-69
2023/03/21 04:45:23;;;;;;;81.80;63.63;;;;;;;;;;5030818;28;20049;-68
2023/03/21 04:48:27;;;;;;;82.50;63.45;;;;;;;;;;5030739;28;20048;-69
2023/03/21 04:51:32;;;;;;;87.97;65.70;;;12.60;99.90;;;;;;5031164;28;20060;-69
2023/03/21 04:54:36;;;;;;;93.25;68.25;;;12.40;99.90;;;;;;5031220;28;20398;-70
2023/03/21 04:57:41;;;;;;;94.10;70.55;;;;;;;;;;5030887;28;20060;-69
2023/03/21 05:00:45;;;;;;;95.63;69.10;;;12.30;99.90;;;;;;5031302;28;20044;-68
2023/03/21 05:03:50;;;;;;;89.40;63.72;;;;;;;;;;5030656;28;20515;-69
2023/03/21 05:06:55;;;;;;;87.43;60.78;;;12.40;99.90;;;;;;5031341;28;20044;-68
2023/03/21 05:09:59;;;;;;;82.15;58.42;;;;;;;;;;5031383;28;20508;-73
2023/03/21 05:13:03;;;;;;;80.20;53.97;;;12.50;99.90;;;;;;5031110;28;20048;-68
2023/03/21 05:16:07;;;;;;;77.95;53.75;;;12.30;99.90;;;;;;5031220;28;20589;-69
2023/03/21 05:19:12;;;;;;;79.57;56.58;;;;;;;;;;5030468;28;20389;-69
2023/03/21 05:22:18;;;;;;;79.20;55.05;;;12.60;99.90;;;;;;5030063;28;20049;-68
2023/03/21 05:25:32;;;;;;;78.45;53.00;;;12.80;99.90;;;;;;5030251;28;20052;-69
2023/03/21 05:28:51;;;;;;;74.82;53.08;;;12.70;99.90;;;;;;5030238;28;20053;-69
2023/03/21 05:31:56;;;;;;;83.60;53.05;;;11.30;99.90;;;;;;5030212;28;20045;-69
2023/03/21 05:35:02;;;;;;;75.38;52.72;;;12.60;99.90;;;;;;5030106;28;20049;-68
2023/03/21 05:38:06;;;;;;;77.18;54.63;;;;;;;;;;5030154;28;20056;-68
2023/03/21 05:41:21;;;;;;;79.80;56.67;;;;;;;;;;5029867;28;20048;-68
2023/03/21 05:44:25;;;;;;;78.28;56.30;;;;;;;;;;5029830;28;20049;-69
2023/03/21 05:47:30;;;;;;;89.90;56.50;;;12.70;99.90;;;;;;5030759;28;20056;-69
2023/03/21 05:50:38;;;;;;;93.97;57.38;;;12.70;99.90;;;;;;5029792;28;20056;-68
2023/03/21 05:53:53;;;;;;;84.90;58.08;;;12.60;99.90;;;;;;5029903;28;20060;-69
2023/03/21 05:56:59;;;;;;;82.70;56.88;;;;;;;;;;5041464;28;20052;-69
2023/03/21 06:00:25;;;;;;;82.50;57.17;;;12.70;99.90;;;;;;5029805;28;20476;-69
2023/03/21 06:03:48;;;;;;;77.18;55.40;;;;;;;;;;5029905;28;20583;-68
2023/03/21 06:07:04;;;;;;;85.07;58.22;;;;;;;;;;5029912;28;20049;-69
2023/03/21 06:10:09;;;;;;;84.78;60.75;;;12.80;99.90;;;;;;5029944;28;20044;-68
2023/03/21 06:13:15;;;;;;;98.63;64.32;;;12.80;99.90;;;;;;5029925;28;20052;-68
2023/03/21 06:16:20;;;;;;;91.68;64.15;;;;;;;;;;5018319;28;20044;-69
2023/03/21 06:19:25;;;;;;;94.15;65.75;;;12.80;99.90;;;;;;5029543;28;20044;-69
2023/03/21 06:22:45;;;;;;;107.07;68.65;;;;;;;;;;5029589;28;20053;-68
2023/03/21 06:25:49;;;;;;;100.15;67.15;;;;;;;;;;5029662;28;20045;-68
2023/03/21 06:28:53;;;;;;;93.10;63.03;;;;;;;;;;5029408;28;20048;-69
2023/03/21 06:31:58;;;;;;;92.10;61.13;;;;;;;;;;5029527;28;20080;-69
2023/03/21 06:35:02;;;;;;;83.00;57.10;;;;;;;;;;5032010;28;20048;-74
2023/03/21 06:38:07;;;;;;;80.32;58.80;;;;;;;;;;5033449;28;20044;-75
2023/03/21 06:41:12;;;;;;;82.30;59.08;;;13.00;99.90;;;;;;5033335;28;20508;-74
2023/03/21 06:44:21;;;;;;;87.63;60.83;;;13.00;99.90;;;;;;5033243;28;20070;-73
2023/03/21 06:47:34;;;;;;;75.25;54.58;;;;;;;;;;5033315;28;20054;-73
2023/03/21 06:50:41;;;;;;;82.78;55.95;;;13.30;99.90;;;;;;5032986;28;20040;-73
2023/03/21 06:53:45;;;;;;;78.03;54.40;;;;;;;;;;5033203;28;20044;-73
2023/03/21 06:56:56;;;;;;;74.70;51.90;;;13.20;99.90;;;;;;5033314;28;20048;-73
2023/03/21 07:00:07;;;;;;;66.63;49.38;;;13.20;99.90;;;;;;5044338;28;20048;-73
2023/03/21 07:03:13;;;;;;;67.65;48.83;;;13.40;99.90;;;;;;5044372;28;20060;-73
2023/03/21 07:06:17;;;;;;;72.53;49.95;;;;;;;;;;5033205;28;20044;-74
2023/03/21 07:09:23;;;;;;;74.10;51.40;;;14.20;99.90;;;;;;5033736;28;20052;-74
2023/03/21 07:12:32;;;;;;;74.80;52.85;;;;;;;;;;5032922;28;20053;-73
2023/03/21 07:16:03;;;;;;;75.25;51.97;;;13.70;99.90;;;;;;5033052;28;20056;-70
2023/03/21 07:19:07;;;;;;;68.30;47.85;;;14.20;99.90;;;;;;5033900;28;20048;-74
2023/03/21 07:22:11;;;;;;;56.88;43.45;;;14.30;99.90;;;;;;5032122;28;20080;-74
2023/03/21 07:25:16;;;;;;;48.95;37.25;;;14.70;99.90;;;;;;5033071;28;20056;-74
2023/03/21 07:28:21;;;;;;;45.40;34.08;;;15.30;99.90;;;;;;5044919;28;20492;-75
2023/03/21 07:31:26;;;;;;;44.03;29.83;;;15.90;99.90;;;;;;5034247;28;20120;-74
2023/03/21 07:34:32;;;;;;;28.80;23.20;;;16.40;99.90;;;;;;5034438;28;20044;-74
2023/03/21 07:37:37;;;;;;;27.98;21.30;;;16.60;99.90;;;;;;5033010;28;20041;-74
2023/03/21 07:40:43;;;;;;;28.08;21.73;;;16.90;99.90;;;;;;5033597;28;20381;-74
2023/03/21 07:43:48;;;;;;;26.73;21.02;;;17.10;99.90;;;;;;5034142;28;20511;-74
2023/03/21 07:46:51;;;;;;;24.67;20.17;;;17.20;99.90;;;;;;5031353;28;20056;-75
2023/03/21 07:49:55;;;;;;;25.52;18.48;;;17.10;99.90;;;;;;5033311;28;20044;-72
2023/03/21 07:52:59;;;;;;;19.75;15.13;;;16.70;99.90;;;;;;5032625;28;20080;-74
2023/03/21 07:56:04;;;;;;;19.85;15.18;;;16.80;99.90;;;;;;5032727;28;20044;-74
2023/03/21 07:59:08;;;;;;;23.52;18.05;;;17.00;99.90;;;;;;5032809;28;20048;-75
2023/03/21 08:02:16;;;;;;;30.10;18.38;;;17.10;99.90;;;;;;5032851;28;20504;-74
2023/03/21 08:05:28;;;;;;;23.40;15.07;;;17.10;99.90;;;;;;5034234;28;20053;-74
2023/03/21 08:08:32;;;;;;;16.88;12.32;;;17.10;99.90;;;;;;5033778;28;20049;-73
2023/03/21 08:11:36;;;;;;;15.35;12.00;;;17.30;99.90;;;;;;5033389;28;20496;-74
2023/03/21 08:14:40;;;;;;;15.63;12.75;;;17.50;99.90;;;;;;5033438;28;20056;-74
2023/03/21 08:17:45;;;;;;;20.23;11.10;;;17.60;99.90;;;;;;5034103;28;20048;-76
2023/03/21 08:20:54;;;;;;;18.67;11.82;;;17.70;99.90;;;;;;5033541;28;20543;-73
2023/03/21 08:23:58;;;;;;;15.10;10.52;;;18.00;99.90;;;;;;5033329;28;20060;-71
2023/03/21 08:27:02;;;;;;;11.95;9.50;;;18.10;98.40;;;;;;5021198;28;20040;-78
2023/03/21 08:30:14;;;;;;;10.70;7.70;;;18.30;98.20;;;;;;5034077;28;20049;-76
2023/03/21 08:33:19;;;;;;;14.82;10.02;;;18.40;97.90;;;;;;5035618;28;20060;-74
2023/03/21 08:36:24;;;;;;;27.83;10.80;;;18.50;97.00;;;;;;5036100;28;20416;-75
2023/03/21 08:39:30;;;;;;;15.88;9.85;;;18.60;98.20;;;;;;5035262;28;20563;-73
2023/03/21 08:42:34;;;;;;;15.20;9.23;;;18.80;98.40;;;;;;5033848;28;20052;-79
2023/03/21 08:45:39;;;;;;;15.82;8.27;;;18.90;97.50;;;;;;5034567;28;20060;-75
2023/03/21 08:48:43;;;;;;;8.25;6.80;;;19.00;97.10;;;;;;5033679;28;20048;-78
2023/03/21 08:51:46;;;;;;;15.98;7.18;;;19.10;95.90;;;;;;5033529;28;20512;-75
2023/03/21 08:54:54;;;;;;;16.85;6.00;;;18.90;95.80;;;;;;5034263;28;20116;-75
2023/03/21 08:57:58;;;;;;;8.68;4.20;;;18.60;95.50;;;;;;5032922;28;20071;-75
2023/03/21 09:01:04;;;;;;;9.18;4.43;;;18.30;95.90;;;;;;5033765;28;20048;-74
2023/03/21 09:04:09;;;;;;;8.35;4.05;;;18.20;96.30;;;;;;5033146;28;20112;-74
2023/03/21 09:07:16;;;;;;;5.25;3.63;;;18.00;95.90;;;;;;5033469;28;20124;-74
2023/03/21 09:10:22;;;;;;;6.93;3.72;;;17.80;95.60;;;;;;5032793;28;20592;-76
2023/03/21 09:13:27;;;;;;;9.27;3.67;;;17.60;95.80;;;;;;5030720;28;20501;-75
2023/03/21 09:16:31;;;;;;;20.95;5.55;;;17.50;95.60;;;;;;5033120;28;20056;-72
2023/03/21 09:19:37;;;;;;;10.93;4.05;;;17.30;95.90;;;;;;5032279;28;20053;-72
2023/03/21 09:22:41;;;;;;;9.27;3.92;;;17.10;95.50;;;;;;5032862;28;20061;-74
2023/03/21 09:25:46;;;;;;;12.70;4.60;;;17.00;95.80;;;;;;5032445;28;20052;-76
2023/03/21 09:28:51;;;;;;;11.80;4.70;;;17.00;96.00;;;;;;5030999;28;20045;-73
2023/03/21 09:31:56;;;;;;;12.32;4.80;;;16.90;96.40;;;;;;5031947;28;20116;-72
2023/03/21 09:35:05;;;;;;;6.90;4.43;;;16.90;96.60;;;;;;5032371;28;20040;-74
2023/03/21 09:38:10;;;;;;;10.57;4.90;;;16.90;96.60;;;;;;5032492;28;20048;-72
2023/03/21 09:41:42;;;;;;;13.30;4.63;;;17.00;96.80;;;;;;5033201;28;20053;-73
2023/03/21 09:45:08;;;;;;;8.15;4.78;;;16.90;96.60;;;;;;5033636;28;20052;-73
2023/03/21 09:48:30;;;;;;;8.80;5.68;;;16.70;95.80;;;;;;5032932;28;20508;-75
2023/03/21 09:51:38;;;;;;;6.45;5.03;;;16.60;96.00;;;;;;5031780;28;20052;-76
2023/03/21 09:54:43;;;;;;;8.13;5.20;;;16.50;96.20;;;;;;5032597;28;20052;-73
2023/03/21 09:57:54;;;;;;;7.60;5.10;;;16.50;96.90;;;;;;5031963;28;20397;-74
2023/03/21 10:01:09;;;;;;;;;;;16.50;96.60;;;;;;5032470;28;20124;-73
2023/03/21 10:04:19;;;;;;;6.68;4.80;;;16.40;96.60;;;;;;5032433;28;19917;-74
2023/03/21 10:07:23;;;;;;;7.95;5.22;;;16.50;96.80;;;;;;5032265;28;20807;-74
2023/03/21 10:11:00;;;;;;;9.13;5.25;;;16.50;97.00;;;;;;5036397;28;20044;-76
2023/03/21 10:14:13;;;;;;;5.85;4.50;;;16.50;96.40;;;;;;5056772;28;20111;-70
2023/03/21 10:17:35;;;;;;;10.98;5.00;;;16.60;96.30;;;;;;5051788;28;20044;-73
2023/03/21 10:20:41;;;;;;;5.07;4.50;;;16.60;96.30;;;;;;5037653;28;20049;-73
2023/03/21 10:23:47;;;;;;;6.88;4.43;;;16.70;95.60;;;;;;5048070;28;20052;-72
2023/03/21 10:26:53;;;;;;;4.25;3.65;;;16.80;95.90;;;;;;5052236;28;20104;-73
2023/03/21 10:29:59;;;;;;;7.45;4.10;;;16.90;95.80;;;;;;5051816;28;20036;-71
2023/03/21 10:33:08;;;;;;;7.57;4.55;;;16.90;95.20;;;;;;5053075;28;20047;-76
2023/03/21 10:36:19;;;;;;;9.80;4.75;;;16.90;95.00;;;;;;5040454;28;20064;-73
2023/03/21 10:39:35;;;;;;;6.93;4.60;;;16.90;95.50;;;;;;5048448;28;20048;-68
2023/03/21 10:42:41;;;;;;;8.35;4.55;;;17.00;95.30;;;;;;5051587;28;20302;-72
2023/03/21 10:45:47;;;;;;;6.43;3.95;;;16.80;94.80;;;;;;5049952;28;20060;-72
2023/03/21 10:48:53;;;;;;;7.72;4.63;;;16.80;95.20;;;;;;5039320;28;20052;-74
2023/03/21 10:52:01;;;;;;;9.00;4.60;;;16.70;95.30;;;;;;5037172;28;20044;-78
2023/03/21 10:55:28;;;;;;;5.53;3.85;;;16.70;95.40;;;;;;5038507;28;20053;-76
2023/03/21 10:58:37;;;;;;;6.32;3.63;;;16.70;95.50;;;;;;5035814;28;20052;-74
2023/03/21 11:01:49;;;;;;;9.73;3.90;;;16.70;95.40;;;;;;5038467;28;20048;-74
2023/03/21 11:04:54;;;;;;;4.65;3.95;;;16.60;95.20;;;;;;5036589;28;20044;-76
2023/03/21 11:08:01;;;;;;;7.20;3.70;;;16.50;95.00;;;;;;5036336;28;20385;-74
2023/03/21 11:11:08;;;;;;;4.53;3.38;;;16.50;95.30;;;;;;5037031;28;20052;-78
2023/03/21 11:14:41;;;;;;;8.15;4.80;;;16.50;95.50;;;;;;5035306;28;20123;-71
2023/03/21 11:17:46;;;;;;;6.70;3.83;;;16.60;95.60;;;;;;5037145;28;20508;-77
2023/03/21 11:20:55;;;;;;;5.82;3.97;;;16.50;95.80;;;;;;5035864;28;20045;-77
2023/03/21 11:23:59;;;;;;;5.07;3.33;;;16.60;95.80;;;;;;5035363;28;20053;-79
2023/03/21 11:27:07;;;;;;;7.60;3.65;;;16.60;96.00;;;;;;5036884;28;20104;-79
2023/03/21 11:30:23;;;;;;;5.50;3.60;;;16.60;96.00;;;;;;5037059;28;20049;-75
2023/03/21 11:33:35;;;;;;;10.68;3.10;;;16.70;96.10;;;;;;5035414;28;20512;-73
2023/03/21 11:36:40;;;;;;;3.40;2.55;;;16.70;95.80;;;;;;5035906;28;20049;-75
2023/03/21 11:39:44;;;;;;;10.20;3.47;;;16.80;95.90;;;;;;5036500;28;20040;-75
2023/03/21 11:42:53;;;;;;;8.32;3.05;;;16.90;95.60;;;;;;5035738;28;20052;-75
2023/03/21 11:46:11;;;;;;;4.82;3.08;;;17.00;94.90;;;;;;5046864;28;20064;-78
2023/03/21 11:49:15;;;;;;;3.92;2.55;;;17.00;95.10;;;;;;5038925;28;20060;-78
2023/03/21 11:52:27;;;;;;;3.33;2.65;;;16.90;95.10;;;;;;5035407;28;20147;-78
2023/03/21 11:56:14;;;;;;;10.00;3.53;;;17.00;95.20;;;;;;5036329;28;20041;-80
2023/03/21 11:59:46;;;;;;;4.85;2.75;;;17.00;94.70;;;;;;5033802;28;20044;-76
2023/03/21 12:03:13;;;;;;;;;;;17.20;94.70;;;;;;5032807;28;20060;-76
2023/03/21 12:06:40;;;;;;;3.83;2.40;;;17.50;94.70;;;;;;5031046;28;19909;-76
2023/03/21 12:09:56;;;;;;;3.25;2.42;;;17.60;93.40;;;;;;5032342;28;20061;-75
2023/03/21 12:13:18;;;;;;;6.35;2.40;;;17.60;93.50;;;;;;5032956;28;20052;-79
2023/03/21 12:16:53;;;;;;;2.47;2.13;;;17.80;92.40;;;;;;5033659;28;20505;-76
2023/03/21 12:20:11;;;;;;;7.57;2.58;;;17.70;91.90;;;;;;5033830;28;20036;-77
2023/03/21 12:23:33;;;;;;;7.07;3.05;;;17.60;91.90;;;;;;5033011;28;20504;-76
2023/03/21 12:27:11;;;;;;;3.90;2.20;;;17.60;91.80;;;;;;5033551;28;20040;-75
2023/03/21 12:30:38;;;;;;;6.78;3.28;;;17.30;91.20;;;;;;5032382;28;20112;-76
2023/03/21 12:33:52;;;;;;;6.47;2.60;;;17.30;92.20;;;;;;5033089;28;20036;-75
2023/03/21 12:37:34;;;;;;;8.80;4.25;;;17.10;92.10;;;;;;5033349;28;20049;-75
2023/03/21 12:40:56;;;;;;;7.65;4.10;;;17.00;92.40;;;;;;5037022;28;20040;-78
2023/03/21 12:44:10;;;;;;;5.97;3.22;;;17.20;92.90;;;;;;5033203;28;20049;-76
2023/03/21 12:47:23;;;;;;;4.43;2.83;;;16.80;93.00;;;;;;5033598;28;20045;-78
2023/03/21 12:50:36;;;;;;;6.13;3.00;;;16.80;93.10;;;;;;5034265;28;20052;-78
2023/03/21 12:54:30;;;;;;;15.82;3.85;;;16.80;93.20;;;;;;5033917;28;20052;-79
2023/03/21 12:57:56;;;;;;;3.33;2.60;;;16.80;93.40;;;;;;5031388;28;20048;-77
2023/03/21 13:01:03;;;;;;;6.60;3.20;;;16.70;93.60;;;;;;5031135;28;20145;-78
2023/03/21 13:04:41;;;;;;;4.10;2.08;;;16.80;93.50;;;;;;5032902;28;20076;-77
2023/03/21 13:07:57;;;;;;;6.93;3.42;;;16.70;93.30;;;;;;5033483;28;20048;-77
2023/03/21 13:11:04;;;;;;;4.43;2.60;;;16.70;93.40;;;;;;5033649;28;20068;-74
2023/03/21 13:14:38;;;;;;;4.70;2.00;;;16.60;93.20;;;;;;5033436;28;20091;-76
2023/03/21 13:17:51;;;;;;;3.20;2.30;;;15.10;93.20;;;;;;5032158;28;20052;-78
2023/03/21 13:21:11;;;;;;;5.75;3.25;;;16.60;93.40;;;;;;5033670;28;20040;-78
2023/03/21 13:24:46;;;;;;;3.55;2.42;;;16.60;93.90;;;;;;5032920;28;20052;-76
2023/03/21 13:28:02;;;;;;;4.40;2.00;;;16.70;94.20;;;;;;5034320;28;20045;-76
2023/03/21 13:31:37;;;;;;;4.50;2.20;;;16.50;94.30;;;;;;5034918;28;20045;-77
2023/03/21 13:34:42;;;;;;;4.47;2.38;;;16.50;94.30;;;;;;5034543;28;20044;-77
2023/03/21 13:38:00;;;;;;;5.18;2.97;;;16.60;94.20;;;;;;5035301;28;20048;-76
2023/03/21 13:41:17;;;;;;;4.35;3.08;;;16.60;94.20;;;;;;5035929;28;20045;-76
2023/03/21 13:44:30;;;;;;;4.22;3.13;;;16.50;94.40;;;;;;5033271;28;20048;-77
2023/03/21 13:47:50;;;;;;;6.25;3.35;;;16.30;94.30;;;;;;5035019;28;20052;-78
2023/03/21 13:51:03;;;;;;;4.80;2.97;;;16.50;94.30;;;;;;5035178;28;20044;-76
2023/03/21 13:54:09;;;;;;;8.27;3.75;;;16.30;94.40;;;;;;5034758;28;20104;-79
2023/03/21 13:57:39;;;;;;;11.43;6.85;;;16.30;94.30;;;;;;5034482;28;20044;-78
2023/03/21 14:00:45;;;;;;;5.78;3.58;;;16.40;94.50;;;;;;5033581;28;20370;-77
2023/03/21 14:03:57;;;;;;;6.45;3.88;;;16.40;94.60;;;;;;5033713;28;20117;-74
2023/03/21 14:07:18;;;;;;;6.93;3.58;;;16.50;94.00;;;;;;5031719;28;20397;-73
2023/03/21 14:10:35;;;;;;;6.50;4.65;;;16.60;94.40;;;;;;5033194;28;20052;-70
2023/03/21 14:13:41;;;;;;;6.38;4.05;;;16.70;94.10;;;;;;5032938;28;20616;-74
2023/03/21 14:16:46;;;;;;;7.70;4.03;;;16.70;93.70;;;;;;5033033;28;20061;-71
2023/03/21 14:19:56;;;;;;;9.13;4.47;;;16.80;93.40;;;;;;5032029;28;20477;-72
2023/03/21 14:23:04;;;;;;;7.10;4.03;;;16.80;93.10;;;;;;5033140;28;20061;-72
2023/03/21 14:26:12;;;;;;;8.98;6.68;;;16.90;93.40;;;;;;5030248;28;20044;-72
2023/03/21 14:29:24;;;;;;;7.25;3.63;;;16.90;92.50;;;;;;5030886;28;20040;-72
2023/03/21 14:32:29;;;;;;;6.53;3.80;;;17.10;92.80;;;;;;5030450;28;20045;-76
2023/03/21 14:35:34;;;;;;;9.15;4.40;;;17.20;92.50;;;;;;5032767;28;20057;-78
2023/03/21 14:38:39;;;;;;;5.68;4.18;;;17.20;92.60;;;;;;5031627;28;20045;-78
2023/03/21 14:41:49;;;;;;;6.93;4.45;;;17.20;91.80;;;;;;5034143;28;20053;-74
2023/03/21 14:44:59;;;;;;;8.00;4.90;;;17.20;91.60;;;;;;5031484;28;20509;-72
2023/03/21 14:48:11;;;;;;;6.32;5.25;;;17.20;91.80;;;;;;5031531;28;20044;-75
2023/03/21 14:51:16;;;;;;;9.77;4.68;;;17.10;91.20;;;;;;5032328;28;20044;-73
2023/03/21 14:54:20;;;;;;;6.65;5.03;;;17.10;91.30;;;;;;5032157;28;20056;-71
2023/03/21 14:57:31;;;;;;;6.88;4.18;;;17.20;91.30;;;;;;5036314;28;20048;-73
2023/03/21 15:00:36;;;;;;;6.27;4.53;;;17.10;91.40;;;;;;5035226;28;20044;-71
2023/03/21 15:03:44;;;;;;;8.15;4.88;;;17.10;91.80;;;;;;5035186;28;20064;-75
2023/03/21 15:06:50;;;;;;;5.32;4.28;;;17.20;91.60;;;;;;5036200;28;20075;-76
2023/03/21 15:09:57;;;;;;;6.45;4.70;;;17.10;91.20;;;;;;5036647;28;20396;-75
2023/03/21 15:13:17;;;;;;;10.63;7.47;;;17.20;91.20;;;;;;5036389;28;20053;-77
2023/03/21 15:16:21;;;;;;;7.82;5.10;;;17.20;91.00;;;;;;5022181;28;20393;-73
2023/03/21 15:19:32;;;;;;;5.10;4.22;;;17.20;91.10;;;;;;5035065;28;20044;-74
2023/03/21 15:22:39;;;;;;;14.88;5.18;;;17.20;89.90;;;;;;5035585;28;20049;-79
2023/03/21 15:25:44;;;;;;;8.57;4.70;;;17.30;90.10;;;;;;5035585;28;20423;-73
2023/03/21 15:28:54;;;;;;;7.82;4.30;;;17.30;90.30;;;;;;5034619;28;20049;-73
2023/03/21 15:31:58;;;;;;;7.72;4.93;;;17.30;87.90;;;;;;5033212;28;20048;-71
2023/03/21 15:35:12;;;;;;;6.60;4.45;;;17.40;88.90;;;;;;5034757;28;20143;-75
2023/03/21 15:38:38;;;;;;;5.22;3.83;;;17.40;88.20;;;;;;5034800;28;20036;-76
2023/03/21 15:42:01;;;;;;;8.90;5.18;;;17.40;88.00;;;;;;5034695;28;20045;-79
2023/03/21 15:45:22;;;;;;;8.88;4.20;;;17.40;88.10;;;;;;5036325;28;20528;-78
2023/03/21 15:48:27;;;;;;;;;;;17.40;87.00;;;;;;5035083;28;20048;-79
2023/03/21 15:51:32;;;;;;;7.20;4.55;;;17.50;85.60;;;;;;5036484;28;19909;-73
2023/03/21 15:54:49;;;;;;;8.27;4.57;;;17.50;87.10;;;;;;5034158;28;20500;-74
2023/03/21 15:58:00;;;;;;;9.30;5.00;;;17.50;87.30;;;;;;5034309;28;20511;-73
2023/03/21 16:01:09;;;;;;;7.00;3.72;;;17.40;87.20;;;;;;5033870;28;20052;-74
2023/03/21 16:04:14;;;;;;;9.18;4.90;;;17.40;85.10;;;;;;5032728;28;20057;-75
2023/03/21 16:07:18;;;;;;;11.07;5.20;;;17.30;86.00;;;;;;5034038;28;20044;-75
2023/03/21 16:10:30;;;;;;;9.25;4.72;;;17.30;86.60;;;;;;5035402;28;20053;-78
2023/03/21 16:13:34;;;;;;;10.35;6.60;;;17.30;86.60;;;;;;5034355;28;20504;-80
2023/03/21 16:16:38;;;;;;;10.00;5.65;;;17.20;86.60;;;;;;5033687;28;20056;-73
2023/03/21 16:19:42;;;;;;;9.60;5.57;;;17.10;86.60;;;;;;5033020;28;20040;-74
2023/03/21 16:22:47;;;;;;;6.85;5.30;;;17.00;86.70;;;;;;5033899;28;20077;-74
2023/03/21 16:25:56;;;;;;;11.45;5.30;;;17.00;87.30;;;;;;5033473;28;20045;-75
2023/03/21 16:29:01;;;;;;;6.15;4.18;;;17.00;87.60;;;;;;5033044;28;20414;-73
2023/03/21 16:32:11;;;;;;;10.05;5.32;;;16.90;87.80;;;;;;5031937;28;20040;-73
2023/03/21 16:35:16;;;;;;;11.35;5.93;;;16.90;88.30;;;;;;5031929;28;20048;-75
2023/03/21 16:38:20;;;;;;;8.43;4.90;;;16.80;87.60;;;;;;5032170;28;20090;-75
2023/03/21 16:41:26;;;;;;;14.63;6.07;;;16.80;88.10;;;;;;5032778;28;20044;-74